Time;durP1;ratioP1;P1;durP2;ratioP2;P2;SDS_P1;SDS_P2;PMS_P1;PMS_P2;Temp;Humidity;BMP_temperature;BMP_pressure;BME280_temperature;BME280_humidity;BME280_pressure;Samples;Min_cycle;Max_cycle;Signal;HPM_P1;HPM_P2
2021/04/06 00:01:32;;;;;;;4.23;1.53;;;;;;;;;;6208750;23;20163;-92
2021/04/06 00:04:41;;;;;;;5.20;1.90;;;;;;;;;;6208339;23;20190;-92
2021/04/06 00:07:46;;;;;;;5.43;1.73;;;;;;;;;;6209865;23;20191;-91
2021/04/06 00:10:53;;;;;;;3.63;1.60;;;;;;;;;;6209067;23;20198;-92
2021/04/06 00:13:58;;;;;;;4.33;1.93;;;;;;;;;;6208108;23;20158;-93
2021/04/06 00:17:07;;;;;;;7.43;1.93;;;;;;;;;;6210078;23;20159;-92
2021/04/06 00:20:12;;;;;;;5.97;1.80;;;;;;;;;;6209488;23;20218;-91
2021/04/06 00:23:18;;;;;;;2.53;1.50;;;;;;;;;;6210682;23;20519;-92
2021/04/06 00:26:22;;;;;;;4.57;1.70;;;;;;;;;;6209878;23;20175;-91
2021/04/06 00:29:27;;;;;;;2.77;1.80;;;;;;;;;;6209654;23;20171;-90
2021/04/06 00:32:33;;;;;;;3.57;1.60;;;;;;;;;;6208762;23;20613;-90
2021/04/06 00:35:39;;;;;;;6.03;1.40;;;;;;;;;;6209035;23;20171;-89
2021/04/06 00:38:44;;;;;;;3.67;1.67;;;;;;;;;;6209803;23;20174;-91
2021/04/06 00:41:49;;;;;;;9.20;2.00;;;;;;;;;;6211592;23;20187;-92
2021/04/06 00:44:58;;;;;;;3.03;1.90;;;;;;;;;;6211897;23;20195;-90
2021/04/06 00:48:10;;;;;;;4.87;1.63;;;;;;;;;;6212368;23;20175;-92
2021/04/06 00:51:16;;;;;;;2.90;1.63;;;;;;;;;;6212665;23;20195;-91
2021/04/06 00:54:23;;;;;;;3.00;1.50;;;;;;;;;;6212525;23;20160;-91
2021/04/06 00:57:28;;;;;;;4.90;1.43;;;;;;;;;;6213376;23;20210;-91
2021/04/06 01:00:33;;;;;;;3.77;1.40;;;;;;;;;;6213032;23;20175;-91
2021/04/06 01:03:41;;;;;;;3.90;1.50;;;;;;;;;;6212537;23;20211;-91
2021/04/06 01:06:57;;;;;;;2.23;1.10;;;;;;;;;;6213307;23;20183;-90
2021/04/06 01:10:02;;;;;;;3.53;1.00;;;;;;;;;;6214027;23;20213;-91
2021/04/06 01:13:06;;;;;;;3.47;1.20;;;;;;;;;;6214408;23;20199;-90
2021/04/06 01:16:11;;;;;;;3.73;1.07;;;;;;;;;;6215638;23;20171;-92
2021/04/06 01:19:18;;;;;;;4.43;0.80;;;;;;;;;;6215658;23;20171;-90
2021/04/06 01:22:23;;;;;;;1.30;0.70;;;;;;;;;;6216654;22;20211;-91
2021/04/06 01:25:31;;;;;;;2.20;0.90;;;;;;;;;;6214586;23;20179;-92
2021/04/06 01:28:36;;;;;;;2.10;0.70;;;;;;;;;;6215590;23;20171;-90
2021/04/06 01:31:42;;;;;;;3.70;0.93;;;;;;;;;;6215922;23;20194;-90
2021/04/06 01:34:47;;;;;;;3.87;0.80;;;;;;;;;;6216599;23;20171;-91
2021/04/06 01:37:51;;;;;;;5.03;0.90;;;;;;;;;;6216596;22;20170;-90
2021/04/06 01:40:58;;;;;;;2.43;0.93;;;;;;;;;;6217315;23;20598;-92
2021/04/06 01:44:03;;;;;;;2.03;1.10;;;;;;;;;;6215839;23;20294;-90
2021/04/06 01:47:13;;;;;;;4.10;1.20;;;;;;;;;;6214188;23;20194;-93
2021/04/06 01:50:18;;;;;;;3.60;1.10;;;;;;;;;;6215611;23;20167;-90
2021/04/06 01:53:25;;;;;;;3.00;1.60;;;;;;;;;;6214286;23;20162;-93
2021/04/06 01:56:34;;;;;;;4.60;1.60;;;;;;;;;;6215084;23;20191;-92
2021/04/06 01:59:43;;;;;;;3.30;1.37;;;;;;;;;;6214845;23;20175;-93
2021/04/06 02:02:48;;;;;;;6.70;1.80;;;;;;;;;;6214184;23;20151;-92
2021/04/06 02:05:52;;;;;;;5.77;2.00;;;;;;;;;;6215525;23;20170;-93
2021/04/06 02:08:57;;;;;;;6.53;1.70;;;;;;;;;;6214158;22;20171;-91
2021/04/06 02:12:03;;;;;;;5.93;1.90;;;;;;;;;;6214122;23;20179;-92
2021/04/06 02:15:09;;;;;;;4.70;2.00;;;;;;;;;;6213940;23;20182;-90
2021/04/06 02:18:21;;;;;;;3.97;1.90;;;;;;;;;;6215535;23;20211;-92
2021/04/06 02:21:27;;;;;;;5.90;1.97;;;;;;;;;;6216308;23;20151;-93
2021/04/06 02:24:35;;;;;;;4.97;2.30;;;;;;;;;;6215446;22;20166;-91
2021/04/06 02:27:40;;;;;;;6.80;2.00;;;;;;;;;;6215341;23;20163;-91
2021/04/06 02:30:55;;;;;;;5.73;2.50;;;;;;;;;;6214301;23;20470;-90
2021/04/06 02:34:00;;;;;;;3.87;1.97;;;;;;;;;;6217082;23;20218;-90
2021/04/06 02:37:06;;;;;;;5.43;2.20;;;;;;;;;;6216356;23;20646;-92
2021/04/06 02:40:12;;;;;;;5.67;2.13;;;;;;;;;;6213845;23;20191;-93
2021/04/06 02:43:17;;;;;;;5.17;2.10;;;;;;;;;;6213327;23;20171;-92
2021/04/06 02:46:22;;;;;;;5.10;2.37;;;;;;;;;;6213311;23;20494;-93
2021/04/06 02:49:27;;;;;;;5.60;2.40;;;;;;;;;;6214007;23;20155;-93
2021/04/06 02:52:32;;;;;;;5.47;2.30;;;;;;;;;;6214064;23;20194;-92
2021/04/06 02:55:38;;;;;;;4.27;2.50;;;;;;;;;;6212699;23;20210;-93
2021/04/06 02:58:44;;;;;;;5.97;2.40;;;;;;;;;;6212574;23;20163;-93
2021/04/06 03:01:49;;;;;;;6.07;2.20;;;;;;;;;;6212819;23;20167;-91
2021/04/06 03:04:54;;;;;;;4.53;2.50;;;;;;;;;;6213976;23;20221;-94
2021/04/06 03:07:59;;;;;;;6.90;2.27;;;;;;;;;;6213466;22;20638;-93
2021/04/06 03:11:04;;;;;;;7.20;2.30;;;;;;;;;;6213312;23;20222;-93
2021/04/06 03:14:10;;;;;;;6.07;2.50;;;;;;;;;;6213568;23;20167;-91
2021/04/06 03:17:15;;;;;;;7.20;2.33;;;;;;;;;;6213852;23;20167;-92
2021/04/06 03:20:20;;;;;;;3.93;2.10;;;;;;;;;;6213213;23;20343;-91
2021/04/06 03:23:27;;;;;;;6.00;2.70;;;;;;;;;;6212514;23;20171;-92
2021/04/06 03:26:32;;;;;;;4.67;2.63;;;;;;;;;;6214373;23;20151;-93
2021/04/06 03:29:38;;;;;;;8.77;3.20;;;;;;;;;;6213837;23;20163;-90
2021/04/06 03:32:43;;;;;;;8.60;2.70;;;;;;;;;;6232559;23;20222;-92
2021/04/06 03:35:48;;;;;;;8.13;2.60;;;;;;;;;;6213539;23;20442;-91
2021/04/06 03:38:54;;;;;;;7.70;2.70;;;;;;;;;;6212925;23;20191;-92
2021/04/06 03:41:59;;;;;;;9.27;2.57;;;;;;;;;;6214459;23;20294;-92
2021/04/06 03:45:09;;;;;;;5.47;2.50;;;;;;;;;;6214169;23;20167;-93
2021/04/06 03:48:20;;;;;;;8.70;3.20;;;;;;;;;;6212349;23;20179;-91
2021/04/06 03:51:28;;;;;;;7.40;2.73;;;;;;;;;;6213975;23;20237;-91
2021/04/06 03:54:34;;;;;;;7.53;2.80;;;;;;;;;;6216770;23;20170;-90
2021/04/06 03:57:46;;;;;;;5.60;2.63;;;;;;;;;;6218228;23;20167;-92
2021/04/06 04:01:10;;;;;;;6.10;2.70;;;;;;;;;;6216927;23;20195;-91
2021/04/06 04:04:16;;;;;;;6.80;2.83;;;;;;;;;;6216406;23;20187;-91
2021/04/06 04:07:20;;;;;;;5.07;2.37;;;;;;;;;;6217719;22;20171;-91
2021/04/06 04:10:26;;;;;;;5.13;2.73;;;;;;;;;;6217734;23;20176;-91
2021/04/06 04:13:31;;;;;;;12.83;2.77;;;;;;;;;;6217588;23;20171;-91
2021/04/06 04:16:38;;;;;;;7.27;2.87;;;;;;;;;;6217200;23;20179;-90
2021/04/06 04:19:43;;;;;;;6.60;2.93;;;;;;;;;;6215258;23;20147;-91
2021/04/06 04:22:49;;;;;;;7.17;2.57;;;;;;;;;;6215322;23;20183;-91
2021/04/06 04:25:54;;;;;;;5.73;2.67;;;;;;;;;;6215034;23;20154;-91
2021/04/06 04:28:59;;;;;;;7.63;2.80;;;;;;;;;;6216304;23;20198;-90
2021/04/06 04:32:11;;;;;;;6.50;2.70;;;;;;;;;;6215228;22;20198;-91
2021/04/06 04:35:31;;;;;;;14.30;3.83;;;;;;;;;;6216386;23;20255;-92
2021/04/06 04:38:37;;;;;;;10.43;3.10;;;;;;;;;;6215878;23;20187;-91
2021/04/06 04:41:42;;;;;;;5.33;2.80;;;;;;;;;;6215605;22;20187;-91
2021/04/06 04:44:46;;;;;;;7.63;3.13;;;;;;;;;;6216060;23;20171;-91
2021/04/06 04:47:51;;;;;;;8.73;2.80;;;;;;;;;;6214726;23;20167;-91
2021/04/06 04:50:56;;;;;;;9.83;3.20;;;;;;;;;;6216901;23;20166;-92
2021/04/06 04:54:02;;;;;;;5.90;2.73;;;;;;;;;;6216001;22;20190;-91
2021/04/06 04:57:06;;;;;;;6.57;2.70;;;;;;;;;;6215260;23;20173;-92
2021/04/06 05:00:14;;;;;;;8.80;2.90;;;;;;;;;;6216130;23;20214;-92
2021/04/06 05:03:20;;;;;;;9.67;3.13;;;;;;;;;;6215319;23;20661;-91
2021/04/06 05:06:26;;;;;;;8.60;2.90;;;;;;;;;;6212681;23;20179;-91
2021/04/06 05:09:32;;;;;;;10.23;3.03;;;;;;;;;;6215525;23;20170;-93
2021/04/06 05:12:37;;;;;;;6.47;3.17;;;;;;;;;;6213158;23;20195;-91
2021/04/06 05:15:45;;;;;;;11.73;4.97;;;;;;;;;;6215285;23;20190;-91
2021/04/06 05:18:49;;;;;;;8.23;3.40;;;;;;;;;;6216496;23;20548;-93
2021/04/06 05:21:54;;;;;;;6.30;3.20;;;;;;;;;;6214633;23;20168;-92
2021/04/06 05:25:00;;;;;;;7.47;3.47;;;;;;;;;;6214975;22;20206;-92
2021/04/06 05:28:09;;;;;;;5.67;3.03;;;;;;;;;;6214655;23;20219;-92
2021/04/06 05:31:14;;;;;;;18.27;3.97;;;;;;;;;;6213310;23;20513;-93
2021/04/06 05:34:18;;;;;;;12.70;3.77;;;;;;;;;;6219617;22;20223;-92
2021/04/06 05:37:23;;;;;;;5.53;3.13;;;;;;;;;;6220203;23;20218;-93
2021/04/06 05:40:30;;;;;;;8.30;3.37;;;;;;;;;;6220468;23;20155;-93
2021/04/06 05:43:38;;;;;;;7.00;3.37;;;;;;;;;;6218864;22;20199;-92
2021/04/06 05:46:45;;;;;;;7.47;2.70;;;;;;;;;;6221962;22;20191;-93
2021/04/06 05:49:50;;;;;;;6.47;2.93;;;;;;;;;;6221203;22;20195;-91
2021/04/06 05:52:56;;;;;;;11.20;2.90;;;;;;;;;;6219933;23;20198;-92
2021/04/06 05:56:02;;;;;;;18.33;3.30;;;;;;;;;;6205257;23;20207;-91
2021/04/06 05:59:15;;;;;;;7.73;3.10;;;;;;;;;;6222387;22;20171;-92
2021/04/06 12:53:25;;;;;;;2.20;1.60;;;;;;;;;;6167824;23;20192;-90
2021/04/06 12:56:30;;;;;;;6.37;1.90;;;;;;;;;;6149840;23;20259;-92
2021/04/06 12:59:35;;;;;;;4.70;1.90;;;;;;;;;;6150131;23;20512;-92
2021/04/06 13:02:40;;;;;;;8.33;2.73;;;;;;;;;;6151175;23;20196;-91
2021/04/06 13:05:45;;;;;;;7.00;2.20;;;;;;;;;;6150679;23;20224;-90
2021/04/06 13:08:50;;;;;;;6.50;2.07;;;;;;;;;;6150013;23;20248;-87
2021/04/06 13:12:05;;;;;;;5.37;1.97;;;;;;;;;;6154221;23;20200;-89
2021/04/06 13:15:10;;;;;;;7.67;2.00;;;;;;;;;;6150250;23;20165;-87
2021/04/06 13:18:15;;;;;;;4.83;2.07;;;;;;;;;;6151220;23;20172;-89
2021/04/06 13:21:19;;;;;;;5.83;1.50;;;;;;;;;;6150178;23;20176;-86
2021/04/06 13:24:25;;;;;;;10.03;1.93;;;;;;;;;;6149273;23;20172;-85
2021/04/06 13:27:33;;;;;;;5.47;1.80;;;;;;;;;;6153457;23;20216;-88
2021/04/06 13:30:37;;;;;;;5.17;1.40;;;;;;;;;;6153530;23;20200;-90
2021/04/06 13:33:42;;;;;;;6.57;1.80;;;;;;;;;;6153751;23;20270;-89
2021/04/06 13:36:47;;;;;;;4.73;1.33;;;;;;;;;;6154529;23;20169;-88
2021/04/06 13:39:53;;;;;;;4.47;1.80;;;;;;;;;;6153810;23;20172;-89
2021/04/06 13:42:59;;;;;;;2.90;1.60;;;;;;;;;;6149649;23;20696;-88
2021/04/06 13:46:04;;;;;;;6.33;1.80;;;;;;;;;;6154541;23;20232;-89
2021/04/06 13:49:09;;;;;;;3.50;1.80;;;;;;;;;;6151539;23;20206;-89
2021/04/06 13:52:14;;;;;;;4.38;1.90;;;;;;;;;;6151162;23;20277;-89
2021/04/06 13:55:19;;;;;;;11.35;2.10;;;;;;;;;;6148687;23;20172;-89
2021/04/06 13:58:24;;;;;;;8.70;1.87;;;;;;;;;;6151055;23;20168;-89
2021/04/06 14:01:29;;;;;;;6.73;2.03;;;;;;;;;;6149871;23;20180;-87
2021/04/06 14:04:34;;;;;;;11.03;1.80;;;;;;;;;;6150614;23;20172;-87
2021/04/06 14:07:39;;;;;;;8.27;2.10;;;;;;;;;;6148011;23;20636;-88
2021/04/06 14:10:44;;;;;;;3.53;1.70;;;;;;;;;;6148977;23;20176;-88
2021/04/06 14:13:49;;;;;;;9.27;1.63;;;;;;;;;;6147354;23;20172;-87
2021/04/06 14:16:54;;;;;;;5.13;1.47;;;;;;;;;;6145466;23;20176;-86
2021/04/06 14:19:58;;;;;;;3.77;1.23;;;;;;;;;;6146097;23;20177;-86
2021/04/06 14:23:04;;;;;;;4.27;1.40;;;;;;;;;;6148676;23;20196;-86
2021/04/06 14:26:10;;;;;;;5.97;1.53;;;;;;;;;;6148320;23;20511;-88
2021/04/06 14:29:14;;;;;;;3.67;1.40;;;;;;;;;;6148564;23;20203;-88
2021/04/06 14:32:20;;;;;;;5.60;1.20;;;;;;;;;;6148108;23;20196;-88
2021/04/06 14:35:25;;;;;;;2.93;1.40;;;;;;;;;;6149547;23;20224;-90
2021/04/06 14:38:30;;;;;;;4.30;1.43;;;;;;;;;;6146929;23;20613;-88
2021/04/06 14:41:36;;;;;;;5.33;1.50;;;;;;;;;;6148713;23;20213;-87
2021/04/06 14:44:41;;;;;;;3.00;1.40;;;;;;;;;;6147821;23;20168;-88
2021/04/06 14:47:46;;;;;;;7.80;3.00;;;;;;;;;;6151558;23;20176;-84
2021/04/06 14:50:50;;;;;;;7.30;1.67;;;;;;;;;;6153938;23;20263;-87
2021/04/06 17:00:27;;;;;;;6.90;1.40;;;;;;;;;;6122572;23;20178;-91
2021/04/06 17:03:32;;;;;;;4.50;1.67;;;;;;;;;;6123213;23;20296;-88
2021/04/06 17:06:37;;;;;;;6.87;1.60;;;;;;;;;;6122901;23;20556;-88
2021/04/06 17:09:41;;;;;;;4.37;1.97;;;;;;;;;;6125362;23;20153;-87
2021/04/06 17:12:46;;;;;;;2.90;1.20;;;;;;;;;;6123089;23;20197;-89
2021/04/06 17:15:52;;;;;;;3.83;1.73;;;;;;;;;;6121693;23;20202;-92
2021/04/06 17:18:57;;;;;;;5.67;1.73;;;;;;;;;;6120979;23;20172;-90
2021/04/06 17:22:01;;;;;;;4.20;1.50;;;;;;;;;;6122384;23;20613;-90
2021/04/06 17:25:07;;;;;;;2.40;1.43;;;;;;;;;;6120898;23;20169;-90
2021/04/06 17:28:12;;;;;;;8.63;3.17;;;;;;;;;;6122496;23;20222;-93
2021/04/06 17:31:20;;;;;;;5.30;2.00;;;;;;;;;;6120802;23;20193;-87
2021/04/06 17:34:24;;;;;;;4.30;1.33;;;;;;;;;;6123414;23;20169;-89
2021/04/06 17:37:29;;;;;;;6.00;1.70;;;;;;;;;;6120292;23;20177;-88
2021/04/06 17:40:36;;;;;;;3.20;1.53;;;;;;;;;;6122551;23;20173;-90
2021/04/06 17:43:42;;;;;;;5.60;1.30;;;;;;;;;;6120087;23;20233;-89
2021/04/06 17:46:48;;;;;;;3.50;1.80;;;;;;;;;;6121118;23;20192;-88
2021/04/06 17:49:53;;;;;;;7.17;1.57;;;;;;;;;;6119582;23;20205;-89
2021/04/06 17:52:58;;;;;;;2.87;1.30;;;;;;;;;;6118169;23;20193;-88
2021/04/06 17:56:08;;;;;;;4.93;1.97;;;;;;;;;;6116679;23;20192;-88
2021/04/06 17:59:14;;;;;;;5.83;1.70;;;;;;;;;;6128954;23;20322;-89
2021/04/06 18:02:19;;;;;;;2.83;1.80;;;;;;;;;;6136332;23;20169;-89
2021/04/06 18:05:25;;;;;;;6.03;2.43;;;;;;;;;;6136111;23;20177;-90
2021/04/06 18:08:29;;;;;;;4.93;2.53;;;;;;;;;;6140615;23;20178;-90
2021/04/06 18:11:36;;;;;;;10.20;2.63;;;;;;;;;;6139327;23;20178;-89
2021/04/06 18:14:40;;;;;;;5.47;2.60;;;;;;;;;;6139982;23;20229;-88
2021/04/06 18:17:45;;;;;;;7.30;3.07;;;;;;;;;;6136837;23;20253;-88
2021/04/06 18:20:50;;;;;;;6.90;2.33;;;;;;;;;;6136999;23;20181;-90
2021/04/06 18:23:54;;;;;;;6.43;2.40;;;;;;;;;;6138685;23;20202;-91
2021/04/06 18:26:59;;;;;;;5.30;2.43;;;;;;;;;;6137184;23;20182;-90
2021/04/06 18:30:04;;;;;;;5.97;3.23;;;;;;;;;;6137465;23;20221;-89
2021/04/06 18:33:11;;;;;;;4.83;2.10;;;;;;;;;;6141997;23;20213;-89
2021/04/06 18:36:16;;;;;;;4.50;1.70;;;;;;;;;;6142330;23;20181;-88
2021/04/06 18:39:21;;;;;;;4.97;2.20;;;;;;;;;;6143793;23;20627;-88
2021/04/06 18:42:27;;;;;;;6.97;2.43;;;;;;;;;;6143028;23;20218;-89
2021/04/06 18:45:31;;;;;;;5.40;2.20;;;;;;;;;;6142657;23;20258;-87
2021/04/06 18:48:37;;;;;;;4.20;2.10;;;;;;;;;;6144005;23;20173;-88
2021/04/06 18:51:42;;;;;;;8.03;2.10;;;;;;;;;;6144852;23;20201;-87
2021/04/06 18:54:47;;;;;;;5.30;2.17;;;;;;;;;;6143263;23;20223;-87
2021/04/06 18:57:51;;;;;;;3.53;1.80;;;;;;;;;;6146003;23;20213;-88
2021/04/06 19:00:57;;;;;;;10.70;2.20;;;;;;;;;;6152768;23;20189;-88
2021/04/06 19:04:06;;;;;;;4.50;2.20;;;;;;;;;;6151804;23;20173;-88
2021/04/06 19:07:12;;;;;;;5.27;2.00;;;;;;;;;;6167244;23;20172;-88
2021/04/06 19:10:22;;;;;;;5.27;1.97;;;;;;;;;;6151696;23;20216;-89
2021/04/06 19:13:28;;;;;;;6.47;2.30;;;;;;;;;;6149849;23;20273;-90
2021/04/06 19:16:33;;;;;;;9.03;2.07;;;;;;;;;;6166702;23;20231;-89
2021/04/06 19:19:40;;;;;;;5.53;2.10;;;;;;;;;;6151653;23;20235;-90
2021/04/06 19:22:45;;;;;;;6.07;1.83;;;;;;;;;;6150555;23;20192;-88
2021/04/06 19:25:50;;;;;;;4.63;1.80;;;;;;;;;;6169319;23;20180;-89
2021/04/06 19:28:54;;;;;;;3.80;1.67;;;;;;;;;;6169415;23;20216;-88
2021/04/06 19:31:59;;;;;;;3.23;1.70;;;;;;;;;;6154489;23;20221;-88
2021/04/06 19:35:06;;;;;;;8.20;1.73;;;;;;;;;;6153756;23;20226;-89
2021/04/06 19:38:11;;;;;;;4.27;1.93;;;;;;;;;;6167128;23;20661;-89
2021/04/06 19:41:16;;;;;;;5.13;2.10;;;;;;;;;;6151193;23;20173;-89
2021/04/06 19:44:21;;;;;;;8.57;3.07;;;;;;;;;;6159093;23;20197;-87
2021/04/06 19:47:26;;;;;;;4.90;2.17;;;;;;;;;;6172234;23;20172;-90
2021/04/06 19:50:31;;;;;;;5.27;2.10;;;;;;;;;;6156370;23;20177;-88
2021/04/06 19:53:37;;;;;;;2.90;1.80;;;;;;;;;;6152769;23;20191;-91
2021/04/06 19:56:42;;;;;;;7.87;3.00;;;;;;;;;;6169602;23;20172;-88
2021/04/06 19:59:47;;;;;;;4.40;1.97;;;;;;;;;;6168492;23;20184;-89
2021/04/06 20:02:52;;;;;;;11.77;1.90;;;;;;;;;;6168676;23;20230;-89
2021/04/06 20:06:06;;;;;;;4.13;1.73;;;;;;;;;;6148798;23;20172;-90
2021/04/06 20:09:12;;;;;;;3.73;1.67;;;;;;;;;;6168990;23;20231;-90
2021/04/06 20:12:17;;;;;;;4.70;1.70;;;;;;;;;;6152144;23;20196;-88
2021/04/06 20:15:24;;;;;;;5.30;2.33;;;;;;;;;;6150155;23;20214;-88
2021/04/06 20:18:29;;;;;;;5.50;1.70;;;;;;;;;;6151099;23;20175;-88
2021/04/06 20:21:35;;;;;;;3.40;1.77;;;;;;;;;;6150633;23;20192;-89
2021/04/06 20:24:40;;;;;;;7.03;1.60;;;;;;;;;;6148788;23;20172;-89
2021/04/06 20:27:45;;;;;;;3.13;1.90;;;;;;;;;;6149343;23;20188;-88
2021/04/06 20:30:50;;;;;;;7.80;1.70;;;;;;;;;;6148932;23;20176;-90
2021/04/06 20:33:57;;;;;;;9.20;1.97;;;;;;;;;;6148250;23;20195;-90
2021/04/06 20:37:03;;;;;;;2.90;1.47;;;;;;;;;;6147893;23;20736;-90
2021/04/06 20:40:09;;;;;;;4.17;1.83;;;;;;;;;;6147514;23;20172;-88
2021/04/06 20:43:17;;;;;;;5.47;2.27;;;;;;;;;;6147961;23;20173;-88
2021/04/06 20:46:21;;;;;;;2.40;1.57;;;;;;;;;;6146712;23;20188;-89
2021/04/06 20:49:26;;;;;;;8.57;2.50;;;;;;;;;;6147952;23;20621;-90
2021/04/06 20:52:31;;;;;;;3.77;1.90;;;;;;;;;;6169457;23;20208;-88
2021/04/06 20:55:37;;;;;;;3.37;1.80;;;;;;;;;;6149614;23;20668;-89
2021/04/06 20:58:42;;;;;;;12.77;2.67;;;;;;;;;;6137384;23;20236;-91
2021/04/06 21:01:47;;;;;;;6.57;2.27;;;;;;;;;;6137407;23;20169;-88
2021/04/06 21:04:52;;;;;;;6.00;1.83;;;;;;;;;;6138230;23;20169;-91
2021/04/06 21:07:57;;;;;;;5.80;2.33;;;;;;;;;;6137235;23;20177;-90
2021/04/06 21:11:01;;;;;;;4.03;1.80;;;;;;;;;;6136444;23;20194;-91
2021/04/06 21:14:06;;;;;;;3.83;1.50;;;;;;;;;;6138804;23;20196;-89
2021/04/06 21:17:13;;;;;;;2.23;1.40;;;;;;;;;;6137711;23;20178;-90
2021/04/06 21:20:18;;;;;;;3.70;1.60;;;;;;;;;;6137245;23;20620;-90
2021/04/06 21:23:23;;;;;;;4.20;1.87;;;;;;;;;;6137475;23;20169;-90
2021/04/06 21:26:28;;;;;;;3.87;1.40;;;;;;;;;;6134643;23;20177;-89
2021/04/06 21:29:32;;;;;;;4.43;1.67;;;;;;;;;;6138120;23;20513;-90
2021/04/06 21:32:36;;;;;;;4.63;1.93;;;;;;;;;;6139043;23;20197;-91
2021/04/06 21:35:41;;;;;;;5.67;1.83;;;;;;;;;;6138690;23;20176;-89
2021/04/06 21:38:46;;;;;;;4.10;1.93;;;;;;;;;;6139676;23;20164;-89
2021/04/06 21:41:50;;;;;;;2.40;1.60;;;;;;;;;;6136278;23;20262;-90
2021/04/06 21:44:56;;;;;;;4.47;1.80;;;;;;;;;;6138117;23;20185;-91
2021/04/06 21:48:01;;;;;;;3.53;1.60;;;;;;;;;;6139309;23;20173;-89
2021/04/06 21:51:05;;;;;;;3.90;1.70;;;;;;;;;;6139036;23;20164;-89
2021/04/06 21:54:11;;;;;;;4.60;2.20;;;;;;;;;;6138022;23;20193;-90
2021/04/06 21:57:15;;;;;;;5.90;1.97;;;;;;;;;;6136761;23;20226;-88
2021/04/06 22:00:21;;;;;;;3.27;1.80;;;;;;;;;;6167143;23;20164;-90
2021/04/06 22:03:40;;;;;;;5.30;2.10;;;;;;;;;;6150919;23;20577;-92
2021/04/06 22:06:46;;;;;;;7.07;2.20;;;;;;;;;;6149290;23;20193;-90
2021/04/06 22:09:51;;;;;;;3.73;2.00;;;;;;;;;;6147943;23;20176;-90
2021/04/06 22:12:56;;;;;;;3.87;2.20;;;;;;;;;;6149319;23;20188;-90
2021/04/06 22:16:00;;;;;;;4.63;2.17;;;;;;;;;;6150544;23;20168;-88
2021/04/06 22:19:06;;;;;;;6.13;1.90;;;;;;;;;;6148227;23;20176;-91
2021/04/06 22:22:10;;;;;;;3.97;1.93;;;;;;;;;;6145989;23;20225;-92
2021/04/06 22:25:20;;;;;;;4.43;1.93;;;;;;;;;;6146235;23;20179;-91
2021/04/06 22:28:28;;;;;;;7.93;2.87;;;;;;;;;;6150290;23;20648;-91
2021/04/06 22:31:32;;;;;;;7.43;3.40;;;;;;;;;;6149964;23;20172;-92
2021/04/06 22:34:37;;;;;;;9.80;3.37;;;;;;;;;;6151158;23;20256;-92
2021/04/06 22:37:43;;;;;;;6.00;2.43;;;;;;;;;;6168355;23;20212;-92
2021/04/06 22:40:49;;;;;;;2.97;1.90;;;;;;;;;;6149617;23;20488;-92
2021/04/06 22:43:53;;;;;;;5.03;1.93;;;;;;;;;;6150181;23;20188;-93
2021/04/06 22:46:58;;;;;;;3.20;1.93;;;;;;;;;;6147783;23;20172;-92
2021/04/06 22:50:04;;;;;;;4.07;1.93;;;;;;;;;;6151142;23;20266;-93
2021/04/06 22:53:10;;;;;;;4.40;2.10;;;;;;;;;;6150197;23;20531;-93
2021/04/06 22:56:16;;;;;;;2.47;1.67;;;;;;;;;;6150531;23;20197;-92
2021/04/06 22:59:20;;;;;;;4.83;2.10;;;;;;;;;;6149313;23;20191;-93
2021/04/06 23:02:25;;;;;;;5.93;2.33;;;;;;;;;;6149837;23;20222;-92
2021/04/06 23:05:30;;;;;;;6.40;2.30;;;;;;;;;;6149450;23;20172;-92
2021/04/06 23:08:35;;;;;;;4.67;2.20;;;;;;;;;;6150242;23;20200;-92
2021/04/06 23:11:41;;;;;;;5.63;2.40;;;;;;;;;;6150795;23;20180;-92
2021/04/06 23:14:49;;;;;;;6.80;2.40;;;;;;;;;;6151877;23;20171;-90
2021/04/06 23:17:55;;;;;;;5.30;2.23;;;;;;;;;;6152531;23;20213;-91
2021/04/06 23:20:59;;;;;;;7.20;2.37;;;;;;;;;;6151245;23;20619;-90
2021/04/06 23:24:04;;;;;;;5.63;2.23;;;;;;;;;;6152107;23;20218;-91
2021/04/06 23:27:09;;;;;;;5.43;2.50;;;;;;;;;;6150224;23;20171;-90
2021/04/06 23:30:16;;;;;;;7.27;2.80;;;;;;;;;;6151325;23;20245;-91
2021/04/06 23:33:21;;;;;;;5.90;2.80;;;;;;;;;;6150916;23;20240;-91
2021/04/06 23:36:25;;;;;;;6.47;2.60;;;;;;;;;;6148825;23;20172;-91
2021/04/06 23:39:30;;;;;;;6.13;2.73;;;;;;;;;;6150399;23;20156;-90
2021/04/06 23:42:35;;;;;;;4.27;2.70;;;;;;;;;;6149762;23;20165;-90
2021/04/06 23:45:40;;;;;;;5.00;3.00;;;;;;;;;;6151550;23;20180;-90
2021/04/06 23:48:44;;;;;;;5.27;2.93;;;;;;;;;;6150893;23;20508;-91
2021/04/06 23:51:49;;;;;;;5.43;2.53;;;;;;;;;;6149707;23;20228;-90
2021/04/06 23:54:53;;;;;;;4.50;2.60;;;;;;;;;;6150767;23;20168;-90
2021/04/06 23:57:58;;;;;;;4.70;2.57;;;;;;;;;;6149190;23;20211;-92
